sensor_id;sensor_type;location;lat;lon;timestamp;P1;durP1;ratioP1;P2;durP2;ratioP2
24325;SDS011;12448;45.532;5.290;2023-10-13T00:01:37;14.18;;;10.25;;
24325;SDS011;12448;45.532;5.290;2023-10-13T00:04:02;17.02;;;10.65;;
24325;SDS011;12448;45.532;5.290;2023-10-13T00:06:30;18.52;;;10.60;;
24325;SDS011;12448;45.532;5.290;2023-10-13T00:08:56;15.38;;;10.45;;
24325;SDS011;12448;45.532;5.290;2023-10-13T00:11:22;18.33;;;11.07;;
24325;SDS011;12448;45.532;5.290;2023-10-13T00:13:47;17.65;;;11.90;;
24325;SDS011;12448;45.532;5.290;2023-10-13T00:16:19;18.95;;;10.52;;
24325;SDS011;12448;45.532;5.290;2023-10-13T00:18:53;15.57;;;10.98;;
24325;SDS011;12448;45.532;5.290;2023-10-13T00:21:22;18.10;;;11.32;;
24325;SDS011;12448;45.532;5.290;2023-10-13T00:23:58;15.30;;;11.15;;
24325;SDS011;12448;45.532;5.290;2023-10-13T00:26:30;17.58;;;11.13;;
24325;SDS011;12448;45.532;5.290;2023-10-13T00:29:01;18.35;;;10.63;;
24325;SDS011;12448;45.532;5.290;2023-10-13T00:31:43;16.65;;;11.55;;
24325;SDS011;12448;45.532;5.290;2023-10-13T00:34:13;20.58;;;11.90;;
24325;SDS011;12448;45.532;5.290;2023-10-13T00:36:50;17.77;;;10.80;;
24325;SDS011;12448;45.532;5.290;2023-10-13T00:39:35;16.30;;;10.32;;
24325;SDS011;12448;45.532;5.290;2023-10-13T00:42:02;15.98;;;10.93;;
24325;SDS011;12448;45.532;5.290;2023-10-13T00:44:33;21.25;;;11.15;;
24325;SDS011;12448;45.532;5.290;2023-10-13T00:47:12;19.60;;;11.20;;
24325;SDS011;12448;45.532;5.290;2023-10-13T00:50:10;14.00;;;10.63;;
24325;SDS011;12448;45.532;5.290;2023-10-13T00:52:40;17.85;;;11.35;;
24325;SDS011;12448;45.532;5.290;2023-10-13T00:55:07;17.92;;;11.52;;
24325;SDS011;12448;45.532;5.290;2023-10-13T00:57:34;15.48;;;11.02;;
24325;SDS011;12448;45.532;5.290;2023-10-13T01:00:01;17.52;;;11.50;;
24325;SDS011;12448;45.532;5.290;2023-10-13T01:02:38;15.02;;;12.07;;
24325;SDS011;12448;45.532;5.290;2023-10-13T01:05:04;17.92;;;11.68;;
24325;SDS011;12448;45.532;5.290;2023-10-13T01:07:32;21.33;;;11.82;;
24325;SDS011;12448;45.532;5.290;2023-10-13T01:10:02;16.23;;;11.43;;
24325;SDS011;12448;45.532;5.290;2023-10-13T01:12:29;17.65;;;11.10;;
24325;SDS011;12448;45.532;5.290;2023-10-13T01:14:56;14.43;;;11.20;;
24325;SDS011;12448;45.532;5.290;2023-10-13T01:17:22;15.27;;;11.55;;
24325;SDS011;12448;45.532;5.290;2023-10-13T01:19:48;18.95;;;12.40;;
24325;SDS011;12448;45.532;5.290;2023-10-13T01:22:14;16.83;;;12.18;;
24325;SDS011;12448;45.532;5.290;2023-10-13T01:24:40;17.73;;;12.23;;
24325;SDS011;12448;45.532;5.290;2023-10-13T01:27:06;18.92;;;12.45;;
24325;SDS011;12448;45.532;5.290;2023-10-13T01:29:51;15.15;;;11.88;;
24325;SDS011;12448;45.532;5.290;2023-10-13T01:32:23;19.20;;;12.27;;
24325;SDS011;12448;45.532;5.290;2023-10-13T01:34:49;16.27;;;11.88;;
24325;SDS011;12448;45.532;5.290;2023-10-13T01:37:20;17.90;;;12.20;;
24325;SDS011;12448;45.532;5.290;2023-10-13T01:39:47;19.40;;;12.52;;
24325;SDS011;12448;45.532;5.290;2023-10-13T01:42:14;14.80;;;12.27;;
24325;SDS011;12448;45.532;5.290;2023-10-13T01:47:13;18.90;;;12.40;;
24325;SDS011;12448;45.532;5.290;2023-10-13T01:49:40;23.58;;;12.82;;
24325;SDS011;12448;45.532;5.290;2023-10-13T01:52:15;24.77;;;13.07;;
24325;SDS011;12448;45.532;5.290;2023-10-13T01:54:41;15.80;;;11.90;;
24325;SDS011;12448;45.532;5.290;2023-10-13T01:57:11;20.10;;;12.48;;
24325;SDS011;12448;45.532;5.290;2023-10-13T01:59:40;15.15;;;11.80;;
24325;SDS011;12448;45.532;5.290;2023-10-13T02:02:12;23.45;;;13.23;;
24325;SDS011;12448;45.532;5.290;2023-10-13T02:04:39;16.27;;;11.57;;
24325;SDS011;12448;45.532;5.290;2023-10-13T02:07:16;16.77;;;11.75;;
24325;SDS011;12448;45.532;5.290;2023-10-13T02:09:42;16.65;;;13.23;;
24325;SDS011;12448;45.532;5.290;2023-10-13T02:12:09;20.63;;;13.48;;
24325;SDS011;12448;45.532;5.290;2023-10-13T02:14:35;19.60;;;12.23;;
24325;SDS011;12448;45.532;5.290;2023-10-13T02:17:03;17.38;;;12.00;;
24325;SDS011;12448;45.532;5.290;2023-10-13T02:19:39;16.67;;;12.75;;
24325;SDS011;12448;45.532;5.290;2023-10-13T02:22:09;19.77;;;13.25;;
24325;SDS011;12448;45.532;5.290;2023-10-13T02:24:36;16.50;;;13.27;;
24325;SDS011;12448;45.532;5.290;2023-10-13T02:27:06;18.00;;;13.50;;
24325;SDS011;12448;45.532;5.290;2023-10-13T02:29:41;20.50;;;14.07;;
24325;SDS011;12448;45.532;5.290;2023-10-13T02:32:11;22.88;;;13.23;;
24325;SDS011;12448;45.532;5.290;2023-10-13T02:34:46;18.70;;;13.88;;
24325;SDS011;12448;45.532;5.290;2023-10-13T02:37:12;19.52;;;14.10;;
24325;SDS011;12448;45.532;5.290;2023-10-13T02:39:41;21.02;;;14.27;;
24325;SDS011;12448;45.532;5.290;2023-10-13T02:42:07;22.60;;;14.27;;
24325;SDS011;12448;45.532;5.290;2023-10-13T02:44:33;20.23;;;14.07;;
24325;SDS011;12448;45.532;5.290;2023-10-13T02:47:01;21.33;;;13.95;;
24325;SDS011;12448;45.532;5.290;2023-10-13T02:49:31;18.35;;;13.85;;
24325;SDS011;12448;45.532;5.290;2023-10-13T02:52:01;22.05;;;15.18;;
24325;SDS011;12448;45.532;5.290;2023-10-13T02:54:33;20.50;;;14.65;;
24325;SDS011;12448;45.532;5.290;2023-10-13T02:57:04;23.85;;;15.52;;
24325;SDS011;12448;45.532;5.290;2023-10-13T02:59:31;21.50;;;14.93;;
24325;SDS011;12448;45.532;5.290;2023-10-13T03:02:14;24.88;;;15.13;;
24325;SDS011;12448;45.532;5.290;2023-10-13T03:04:54;18.83;;;14.88;;
24325;SDS011;12448;45.532;5.290;2023-10-13T03:07:38;18.67;;;14.55;;
24325;SDS011;12448;45.532;5.290;2023-10-13T03:10:08;18.88;;;14.18;;
24325;SDS011;12448;45.532;5.290;2023-10-13T03:12:37;19.70;;;15.25;;
24325;SDS011;12448;45.532;5.290;2023-10-13T03:15:03;23.85;;;15.10;;
24325;SDS011;12448;45.532;5.290;2023-10-13T03:17:43;27.42;;;15.32;;
24325;SDS011;12448;45.532;5.290;2023-10-13T03:20:14;21.75;;;15.60;;
24325;SDS011;12448;45.532;5.290;2023-10-13T03:22:41;21.63;;;15.13;;
24325;SDS011;12448;45.532;5.290;2023-10-13T03:25:10;21.05;;;15.60;;
24325;SDS011;12448;45.532;5.290;2023-10-13T03:27:43;25.10;;;16.05;;
24325;SDS011;12448;45.532;5.290;2023-10-13T03:30:18;24.35;;;16.27;;
24325;SDS011;12448;45.532;5.290;2023-10-13T03:32:46;20.75;;;15.93;;
24325;SDS011;12448;45.532;5.290;2023-10-13T03:38:03;25.27;;;16.27;;
24325;SDS011;12448;45.532;5.290;2023-10-13T03:40:29;23.15;;;16.60;;
24325;SDS011;12448;45.532;5.290;2023-10-13T03:43:05;22.63;;;15.98;;
24325;SDS011;12448;45.532;5.290;2023-10-13T03:45:35;23.15;;;16.63;;
24325;SDS011;12448;45.532;5.290;2023-10-13T03:48:04;22.80;;;16.35;;
24325;SDS011;12448;45.532;5.290;2023-10-13T03:50:49;21.27;;;16.17;;
24325;SDS011;12448;45.532;5.290;2023-10-13T03:53:34;19.05;;;15.27;;
24325;SDS011;12448;45.532;5.290;2023-10-13T03:56:01;22.35;;;16.20;;
24325;SDS011;12448;45.532;5.290;2023-10-13T03:58:38;22.58;;;16.35;;
24325;SDS011;12448;45.532;5.290;2023-10-13T04:03:37;25.13;;;15.63;;
24325;SDS011;12448;45.532;5.290;2023-10-13T04:06:06;24.73;;;15.85;;
24325;SDS011;12448;45.532;5.290;2023-10-13T04:08:41;23.35;;;15.90;;
24325;SDS011;12448;45.532;5.290;2023-10-13T04:11:07;20.10;;;15.65;;
24325;SDS011;12448;45.532;5.290;2023-10-13T04:13:51;20.13;;;15.00;;
24325;SDS011;12448;45.532;5.290;2023-10-13T04:16:38;22.80;;;17.42;;
24325;SDS011;12448;45.532;5.290;2023-10-13T04:19:17;22.63;;;16.10;;
24325;SDS011;12448;45.532;5.290;2023-10-13T04:21:49;22.95;;;16.88;;
24325;SDS011;12448;45.532;5.290;2023-10-13T04:27:04;21.02;;;15.48;;
24325;SDS011;12448;45.532;5.290;2023-10-13T04:29:36;21.45;;;15.80;;
24325;SDS011;12448;45.532;5.290;2023-10-13T04:32:21;25.92;;;16.45;;
24325;SDS011;12448;45.532;5.290;2023-10-13T04:35:03;23.33;;;16.70;;
24325;SDS011;12448;45.532;5.290;2023-10-13T04:38:03;20.83;;;15.70;;
24325;SDS011;12448;45.532;5.290;2023-10-13T04:40:44;22.70;;;16.30;;
24325;SDS011;12448;45.532;5.290;2023-10-13T04:43:24;23.77;;;16.38;;
24325;SDS011;12448;45.532;5.290;2023-10-13T04:46:09;21.38;;;16.40;;
24325;SDS011;12448;45.532;5.290;2023-10-13T04:49:00;23.92;;;16.15;;
24325;SDS011;12448;45.532;5.290;2023-10-13T04:51:35;24.75;;;16.85;;
24325;SDS011;12448;45.532;5.290;2023-10-13T04:54:20;21.80;;;16.13;;
24325;SDS011;12448;45.532;5.290;2023-10-13T04:56:57;20.50;;;16.20;;
24325;SDS011;12448;45.532;5.290;2023-10-13T04:59:45;27.17;;;16.77;;
24325;SDS011;12448;45.532;5.290;2023-10-13T05:02:30;22.80;;;16.27;;
24325;SDS011;12448;45.532;5.290;2023-10-13T05:05:03;23.48;;;15.90;;
24325;SDS011;12448;45.532;5.290;2023-10-13T05:07:51;22.27;;;17.23;;
24325;SDS011;12448;45.532;5.290;2023-10-13T05:10:36;21.10;;;16.65;;
24325;SDS011;12448;45.532;5.290;2023-10-13T05:13:21;26.83;;;16.35;;
24325;SDS011;12448;45.532;5.290;2023-10-13T05:16:05;23.15;;;16.02;;
24325;SDS011;12448;45.532;5.290;2023-10-13T05:18:56;28.48;;;16.38;;
24325;SDS011;12448;45.532;5.290;2023-10-13T05:21:40;28.80;;;17.83;;
24325;SDS011;12448;45.532;5.290;2023-10-13T05:24:24;23.75;;;16.50;;
24325;SDS011;12448;45.532;5.290;2023-10-13T05:27:08;24.92;;;17.23;;
24325;SDS011;12448;45.532;5.290;2023-10-13T05:29:52;23.83;;;16.75;;
24325;SDS011;12448;45.532;5.290;2023-10-13T05:32:36;24.25;;;16.85;;
24325;SDS011;12448;45.532;5.290;2023-10-13T05:38:14;23.92;;;16.27;;
24325;SDS011;12448;45.532;5.290;2023-10-13T05:41:01;23.27;;;17.63;;
24325;SDS011;12448;45.532;5.290;2023-10-13T05:43:52;24.98;;;16.05;;
24325;SDS011;12448;45.532;5.290;2023-10-13T05:46:37;25.58;;;16.88;;
24325;SDS011;12448;45.532;5.290;2023-10-13T05:49:03;25.85;;;17.02;;
24325;SDS011;12448;45.532;5.290;2023-10-13T05:51:42;24.23;;;17.40;;
24325;SDS011;12448;45.532;5.290;2023-10-13T05:54:11;24.35;;;17.38;;
24325;SDS011;12448;45.532;5.290;2023-10-13T05:59:32;23.75;;;16.90;;
24325;SDS011;12448;45.532;5.290;2023-10-13T06:02:18;24.27;;;17.27;;
24325;SDS011;12448;45.532;5.290;2023-10-13T06:05:07;22.98;;;16.52;;
24325;SDS011;12448;45.532;5.290;2023-10-13T06:07:52;25.00;;;17.20;;
24325;SDS011;12448;45.532;5.290;2023-10-13T06:10:37;28.15;;;16.52;;
24325;SDS011;12448;45.532;5.290;2023-10-13T06:13:22;22.77;;;16.67;;
24325;SDS011;12448;45.532;5.290;2023-10-13T06:16:07;23.85;;;16.73;;
24325;SDS011;12448;45.532;5.290;2023-10-13T06:18:58;25.15;;;16.33;;
24325;SDS011;12448;45.532;5.290;2023-10-13T06:21:46;24.08;;;17.55;;
24325;SDS011;12448;45.532;5.290;2023-10-13T06:24:30;23.80;;;16.80;;
24325;SDS011;12448;45.532;5.290;2023-10-13T06:27:15;27.08;;;17.30;;
24325;SDS011;12448;45.532;5.290;2023-10-13T06:29:59;24.63;;;18.27;;
24325;SDS011;12448;45.532;5.290;2023-10-13T06:32:29;22.60;;;16.63;;
24325;SDS011;12448;45.532;5.290;2023-10-13T06:34:57;26.98;;;17.70;;
24325;SDS011;12448;45.532;5.290;2023-10-13T06:37:24;27.63;;;18.23;;
24325;SDS011;12448;45.532;5.290;2023-10-13T06:39:50;23.65;;;15.73;;
24325;SDS011;12448;45.532;5.290;2023-10-13T06:42:22;22.87;;;17.53;;
24325;SDS011;12448;45.532;5.290;2023-10-13T06:44:52;29.45;;;17.65;;
24325;SDS011;12448;45.532;5.290;2023-10-13T06:47:19;26.42;;;16.98;;
24325;SDS011;12448;45.532;5.290;2023-10-13T06:49:46;25.13;;;15.90;;
24325;SDS011;12448;45.532;5.290;2023-10-13T06:52:16;27.02;;;17.65;;
24325;SDS011;12448;45.532;5.290;2023-10-13T06:54:54;28.70;;;17.50;;
24325;SDS011;12448;45.532;5.290;2023-10-13T06:57:21;29.40;;;17.30;;
24325;SDS011;12448;45.532;5.290;2023-10-13T06:59:47;23.10;;;17.15;;
24325;SDS011;12448;45.532;5.290;2023-10-13T07:02:13;25.77;;;18.10;;
24325;SDS011;12448;45.532;5.290;2023-10-13T07:04:46;27.85;;;17.92;;
24325;SDS011;12448;45.532;5.290;2023-10-13T07:07:13;20.88;;;16.55;;
24325;SDS011;12448;45.532;5.290;2023-10-13T07:09:43;23.48;;;17.85;;
24325;SDS011;12448;45.532;5.290;2023-10-13T07:12:20;24.65;;;17.33;;
24325;SDS011;12448;45.532;5.290;2023-10-13T07:14:51;20.83;;;17.00;;
24325;SDS011;12448;45.532;5.290;2023-10-13T07:17:17;27.10;;;16.95;;
24325;SDS011;12448;45.532;5.290;2023-10-13T07:19:57;27.23;;;18.33;;
24325;SDS011;12448;45.532;5.290;2023-10-13T07:22:38;23.95;;;17.77;;
24325;SDS011;12448;45.532;5.290;2023-10-13T07:25:05;26.50;;;17.75;;
24325;SDS011;12448;45.532;5.290;2023-10-13T07:27:34;24.13;;;17.77;;
24325;SDS011;12448;45.532;5.290;2023-10-13T07:30:00;35.67;;;19.13;;
24325;SDS011;12448;45.532;5.290;2023-10-13T07:32:41;25.20;;;17.00;;
24325;SDS011;12448;45.532;5.290;2023-10-13T07:35:14;37.55;;;19.70;;
24325;SDS011;12448;45.532;5.290;2023-10-13T07:37:43;34.28;;;18.33;;
24325;SDS011;12448;45.532;5.290;2023-10-13T07:40:10;25.60;;;17.50;;
24325;SDS011;12448;45.532;5.290;2023-10-13T07:42:54;25.35;;;17.80;;
24325;SDS011;12448;45.532;5.290;2023-10-13T07:45:29;28.83;;;18.25;;
24325;SDS011;12448;45.532;5.290;2023-10-13T07:53:51;24.67;;;17.63;;
24325;SDS011;12448;45.532;5.290;2023-10-13T07:56:18;24.33;;;17.98;;
24325;SDS011;12448;45.532;5.290;2023-10-13T07:59:09;23.45;;;17.50;;
24325;SDS011;12448;45.532;5.290;2023-10-13T08:01:37;26.73;;;18.38;;
24325;SDS011;12448;45.532;5.290;2023-10-13T08:04:07;25.08;;;17.40;;
24325;SDS011;12448;45.532;5.290;2023-10-13T08:06:37;25.90;;;18.23;;
24325;SDS011;12448;45.532;5.290;2023-10-13T08:09:05;27.20;;;16.70;;
24325;SDS011;12448;45.532;5.290;2023-10-13T08:11:50;25.98;;;17.42;;
24325;SDS011;12448;45.532;5.290;2023-10-13T08:14:19;32.38;;;18.33;;
24325;SDS011;12448;45.532;5.290;2023-10-13T08:16:48;27.48;;;17.33;;
24325;SDS011;12448;45.532;5.290;2023-10-13T08:19:19;25.48;;;16.48;;
24325;SDS011;12448;45.532;5.290;2023-10-13T08:21:51;28.35;;;17.63;;
24325;SDS011;12448;45.532;5.290;2023-10-13T08:24:22;25.83;;;16.85;;
24325;SDS011;12448;45.532;5.290;2023-10-13T08:27:15;24.83;;;17.10;;
24325;SDS011;12448;45.532;5.290;2023-10-13T08:30:00;22.95;;;16.58;;
24325;SDS011;12448;45.532;5.290;2023-10-13T08:32:28;22.75;;;15.68;;
24325;SDS011;12448;45.532;5.290;2023-10-13T08:34:55;22.45;;;16.20;;
24325;SDS011;12448;45.532;5.290;2023-10-13T08:37:24;20.58;;;15.68;;
24325;SDS011;12448;45.532;5.290;2023-10-13T08:40:31;23.25;;;16.00;;
24325;SDS011;12448;45.532;5.290;2023-10-13T08:43:16;25.30;;;17.33;;
24325;SDS011;12448;45.532;5.290;2023-10-13T08:45:43;27.30;;;15.70;;
24325;SDS011;12448;45.532;5.290;2023-10-13T08:48:11;21.50;;;16.27;;
24325;SDS011;12448;45.532;5.290;2023-10-13T08:50:51;20.65;;;15.85;;
24325;SDS011;12448;45.532;5.290;2023-10-13T08:53:21;24.27;;;15.70;;
24325;SDS011;12448;45.532;5.290;2023-10-13T09:01:49;26.30;;;15.13;;
24325;SDS011;12448;45.532;5.290;2023-10-13T09:04:33;19.90;;;14.90;;
24325;SDS011;12448;45.532;5.290;2023-10-13T09:07:01;21.30;;;14.30;;
24325;SDS011;12448;45.532;5.290;2023-10-13T09:09:30;21.73;;;14.07;;
24325;SDS011;12448;45.532;5.290;2023-10-13T09:12:02;24.17;;;14.05;;
24325;SDS011;12448;45.532;5.290;2023-10-13T09:14:38;19.42;;;12.85;;
24325;SDS011;12448;45.532;5.290;2023-10-13T09:17:13;21.27;;;12.25;;
24325;SDS011;12448;45.532;5.290;2023-10-13T09:19:46;15.82;;;11.52;;
24325;SDS011;12448;45.532;5.290;2023-10-13T09:22:25;16.95;;;11.20;;
24325;SDS011;12448;45.532;5.290;2023-10-13T09:25:04;20.95;;;11.55;;
24325;SDS011;12448;45.532;5.290;2023-10-13T09:27:31;13.70;;;9.88;;
24325;SDS011;12448;45.532;5.290;2023-10-13T09:29:58;14.65;;;10.07;;
24325;SDS011;12448;45.532;5.290;2023-10-13T09:32:34;16.27;;;9.57;;
24325;SDS011;12448;45.532;5.290;2023-10-13T09:35:19;18.30;;;9.07;;
24325;SDS011;12448;45.532;5.290;2023-10-13T09:37:48;17.48;;;10.05;;
24325;SDS011;12448;45.532;5.290;2023-10-13T09:40:18;14.93;;;9.35;;
24325;SDS011;12448;45.532;5.290;2023-10-13T09:42:51;14.23;;;8.50;;
24325;SDS011;12448;45.532;5.290;2023-10-13T09:45:21;17.45;;;9.05;;
24325;SDS011;12448;45.532;5.290;2023-10-13T09:47:52;11.48;;;8.82;;
24325;SDS011;12448;45.532;5.290;2023-10-13T09:50:22;15.85;;;8.80;;
24325;SDS011;12448;45.532;5.290;2023-10-13T09:52:51;15.55;;;7.93;;
24325;SDS011;12448;45.532;5.290;2023-10-13T09:58:03;13.35;;;7.80;;
24325;SDS011;12448;45.532;5.290;2023-10-13T10:00:46;10.65;;;7.28;;
24325;SDS011;12448;45.532;5.290;2023-10-13T10:03:22;15.13;;;7.55;;
24325;SDS011;12448;45.532;5.290;2023-10-13T10:05:59;14.35;;;7.45;;
24325;SDS011;12448;45.532;5.290;2023-10-13T10:08:37;12.95;;;7.55;;
24325;SDS011;12448;45.532;5.290;2023-10-13T10:19:12;11.00;;;7.38;;
24325;SDS011;12448;45.532;5.290;2023-10-13T10:21:38;12.65;;;7.85;;
24325;SDS011;12448;45.532;5.290;2023-10-13T10:24:22;13.75;;;8.00;;
24325;SDS011;12448;45.532;5.290;2023-10-13T10:26:58;13.30;;;7.15;;
24325;SDS011;12448;45.532;5.290;2023-10-13T10:29:24;13.73;;;7.82;;
24325;SDS011;12448;45.532;5.290;2023-10-13T10:31:50;13.13;;;7.55;;
24325;SDS011;12448;45.532;5.290;2023-10-13T10:34:17;14.95;;;7.80;;
24325;SDS011;12448;45.532;5.290;2023-10-13T10:36:47;14.02;;;8.00;;
24325;SDS011;12448;45.532;5.290;2023-10-13T10:39:19;12.73;;;8.27;;
24325;SDS011;12448;45.532;5.290;2023-10-13T10:41:46;11.65;;;7.00;;
24325;SDS011;12448;45.532;5.290;2023-10-13T10:44:18;11.63;;;7.50;;
24325;SDS011;12448;45.532;5.290;2023-10-13T10:47:11;11.45;;;7.35;;
24325;SDS011;12448;45.532;5.290;2023-10-13T10:50:06;19.17;;;7.90;;
24325;SDS011;12448;45.532;5.290;2023-10-13T10:52:43;14.70;;;7.35;;
24325;SDS011;12448;45.532;5.290;2023-10-13T10:55:09;15.02;;;7.95;;
24325;SDS011;12448;45.532;5.290;2023-10-13T10:57:38;14.77;;;7.35;;
24325;SDS011;12448;45.532;5.290;2023-10-13T11:00:17;17.23;;;7.45;;
24325;SDS011;12448;45.532;5.290;2023-10-13T11:02:54;13.18;;;7.72;;
24325;SDS011;12448;45.532;5.290;2023-10-13T11:05:23;12.93;;;8.05;;
24325;SDS011;12448;45.532;5.290;2023-10-13T11:07:57;12.98;;;7.13;;
24325;SDS011;12448;45.532;5.290;2023-10-13T11:10:23;13.02;;;7.47;;
24325;SDS011;12448;45.532;5.290;2023-10-13T11:12:55;11.98;;;7.07;;
24325;SDS011;12448;45.532;5.290;2023-10-13T11:15:44;17.95;;;8.20;;
24325;SDS011;12448;45.532;5.290;2023-10-13T11:20:42;15.18;;;7.55;;
24325;SDS011;12448;45.532;5.290;2023-10-13T11:23:13;15.98;;;7.40;;
24325;SDS011;12448;45.532;5.290;2023-10-13T11:25:40;10.25;;;7.35;;
24325;SDS011;12448;45.532;5.290;2023-10-13T11:28:13;15.38;;;8.45;;
24325;SDS011;12448;45.532;5.290;2023-10-13T11:30:43;19.33;;;8.02;;
24325;SDS011;12448;45.532;5.290;2023-10-13T11:33:14;20.13;;;7.93;;
24325;SDS011;12448;45.532;5.290;2023-10-13T11:35:48;17.15;;;7.47;;
24325;SDS011;12448;45.532;5.290;2023-10-13T11:38:29;17.47;;;8.40;;
24325;SDS011;12448;45.532;5.290;2023-10-13T11:41:05;13.25;;;7.43;;
24325;SDS011;12448;45.532;5.290;2023-10-13T11:46:12;9.45;;;6.88;;
24325;SDS011;12448;45.532;5.290;2023-10-13T11:48:39;16.15;;;7.18;;
24325;SDS011;12448;45.532;5.290;2023-10-13T11:51:10;19.17;;;7.03;;
24325;SDS011;12448;45.532;5.290;2023-10-13T11:53:49;14.02;;;7.32;;
24325;SDS011;12448;45.532;5.290;2023-10-13T11:56:18;16.00;;;6.47;;
24325;SDS011;12448;45.532;5.290;2023-10-13T11:58:48;11.88;;;6.82;;
24325;SDS011;12448;45.532;5.290;2023-10-13T12:01:14;13.77;;;6.50;;
24325;SDS011;12448;45.532;5.290;2023-10-13T12:03:44;15.68;;;7.70;;
24325;SDS011;12448;45.532;5.290;2023-10-13T12:06:29;10.52;;;6.30;;
24325;SDS011;12448;45.532;5.290;2023-10-13T12:09:02;10.55;;;7.18;;
24325;SDS011;12448;45.532;5.290;2023-10-13T12:11:59;10.68;;;6.97;;
24325;SDS011;12448;45.532;5.290;2023-10-13T12:14:26;11.32;;;6.97;;
24325;SDS011;12448;45.532;5.290;2023-10-13T12:17:01;13.23;;;7.32;;
24325;SDS011;12448;45.532;5.290;2023-10-13T12:19:35;10.10;;;7.28;;
24325;SDS011;12448;45.532;5.290;2023-10-13T12:22:01;11.85;;;6.88;;
24325;SDS011;12448;45.532;5.290;2023-10-13T12:24:32;12.50;;;6.97;;
24325;SDS011;12448;45.532;5.290;2023-10-13T12:27:01;9.88;;;6.60;;
24325;SDS011;12448;45.532;5.290;2023-10-13T12:29:44;11.45;;;7.13;;
24325;SDS011;12448;45.532;5.290;2023-10-13T12:32:12;10.57;;;7.43;;
24325;SDS011;12448;45.532;5.290;2023-10-13T12:34:39;10.40;;;7.25;;
24325;SDS011;12448;45.532;5.290;2023-10-13T12:37:22;10.88;;;7.05;;
24325;SDS011;12448;45.532;5.290;2023-10-13T12:40:14;13.93;;;7.28;;
24325;SDS011;12448;45.532;5.290;2023-10-13T12:42:59;10.95;;;6.45;;
24325;SDS011;12448;45.532;5.290;2023-10-13T12:45:44;13.63;;;6.88;;
24325;SDS011;12448;45.532;5.290;2023-10-13T12:48:29;12.98;;;7.00;;
24325;SDS011;12448;45.532;5.290;2023-10-13T12:51:14;13.00;;;7.13;;
24325;SDS011;12448;45.532;5.290;2023-10-13T12:54:05;13.35;;;7.32;;
24325;SDS011;12448;45.532;5.290;2023-10-13T12:56:39;11.35;;;7.03;;
24325;SDS011;12448;45.532;5.290;2023-10-13T12:59:10;11.20;;;6.50;;
24325;SDS011;12448;45.532;5.290;2023-10-13T13:01:40;16.70;;;6.88;;
24325;SDS011;12448;45.532;5.290;2023-10-13T13:04:09;12.98;;;6.30;;
24325;SDS011;12448;45.532;5.290;2023-10-13T13:06:51;11.93;;;6.93;;
24325;SDS011;12448;45.532;5.290;2023-10-13T13:09:18;12.18;;;6.55;;
24325;SDS011;12448;45.532;5.290;2023-10-13T13:11:51;11.65;;;6.00;;
24325;SDS011;12448;45.532;5.290;2023-10-13T13:14:23;14.95;;;7.50;;
24325;SDS011;12448;45.532;5.290;2023-10-13T13:16:55;15.73;;;6.70;;
24325;SDS011;12448;45.532;5.290;2023-10-13T13:19:30;13.10;;;7.45;;
24325;SDS011;12448;45.532;5.290;2023-10-13T13:22:04;9.73;;;6.53;;
24325;SDS011;12448;45.532;5.290;2023-10-13T13:24:30;10.65;;;6.53;;
24325;SDS011;12448;45.532;5.290;2023-10-13T13:26:56;12.23;;;6.30;;
24325;SDS011;12448;45.532;5.290;2023-10-13T13:29:28;12.05;;;6.63;;
24325;SDS011;12448;45.532;5.290;2023-10-13T13:31:54;14.15;;;7.28;;
24325;SDS011;12448;45.532;5.290;2023-10-13T13:34:20;15.30;;;6.72;;
24325;SDS011;12448;45.532;5.290;2023-10-13T13:36:46;11.63;;;7.47;;
24325;SDS011;12448;45.532;5.290;2023-10-13T13:39:17;12.98;;;7.03;;
24325;SDS011;12448;45.532;5.290;2023-10-13T13:41:53;13.18;;;6.90;;
24325;SDS011;12448;45.532;5.290;2023-10-13T13:44:21;17.45;;;7.30;;
24325;SDS011;12448;45.532;5.290;2023-10-13T13:46:54;13.30;;;6.70;;
24325;SDS011;12448;45.532;5.290;2023-10-13T13:49:22;11.30;;;6.88;;
24325;SDS011;12448;45.532;5.290;2023-10-13T13:51:55;10.05;;;7.03;;
24325;SDS011;12448;45.532;5.290;2023-10-13T13:54:21;10.75;;;6.13;;
24325;SDS011;12448;45.532;5.290;2023-10-13T13:56:47;15.18;;;6.78;;
24325;SDS011;12448;45.532;5.290;2023-10-13T13:59:13;11.27;;;5.70;;
24325;SDS011;12448;45.532;5.290;2023-10-13T14:01:44;10.40;;;6.32;;
24325;SDS011;12448;45.532;5.290;2023-10-13T14:04:11;10.07;;;5.93;;
24325;SDS011;12448;45.532;5.290;2023-10-13T14:06:39;9.80;;;6.38;;
24325;SDS011;12448;45.532;5.290;2023-10-13T14:09:04;16.83;;;6.07;;
24325;SDS011;12448;45.532;5.290;2023-10-13T14:11:40;10.65;;;5.50;;
24325;SDS011;12448;45.532;5.290;2023-10-13T14:14:25;12.88;;;6.38;;
24325;SDS011;12448;45.532;5.290;2023-10-13T14:16:51;10.80;;;5.65;;
24325;SDS011;12448;45.532;5.290;2023-10-13T14:19:18;9.50;;;5.50;;
24325;SDS011;12448;45.532;5.290;2023-10-13T14:21:54;7.30;;;5.80;;
24325;SDS011;12448;45.532;5.290;2023-10-13T14:24:20;11.23;;;6.50;;
24325;SDS011;12448;45.532;5.290;2023-10-13T14:27:01;10.20;;;6.20;;
24325;SDS011;12448;45.532;5.290;2023-10-13T14:29:37;16.73;;;6.40;;
24325;SDS011;12448;45.532;5.290;2023-10-13T14:32:11;11.20;;;5.90;;
24325;SDS011;12448;45.532;5.290;2023-10-13T14:34:41;11.18;;;5.68;;
24325;SDS011;12448;45.532;5.290;2023-10-13T14:37:09;8.05;;;6.05;;
24325;SDS011;12448;45.532;5.290;2023-10-13T14:39:41;9.27;;;5.90;;
24325;SDS011;12448;45.532;5.290;2023-10-13T14:42:06;10.20;;;5.60;;
24325;SDS011;12448;45.532;5.290;2023-10-13T14:44:32;12.07;;;5.68;;
24325;SDS011;12448;45.532;5.290;2023-10-13T14:46:59;9.25;;;5.05;;
24325;SDS011;12448;45.532;5.290;2023-10-13T14:49:25;9.32;;;5.15;;
24325;SDS011;12448;45.532;5.290;2023-10-13T14:51:51;8.88;;;5.18;;
24325;SDS011;12448;45.532;5.290;2023-10-13T14:54:20;9.60;;;5.75;;
24325;SDS011;12448;45.532;5.290;2023-10-13T14:56:57;7.28;;;5.07;;
24325;SDS011;12448;45.532;5.290;2023-10-13T14:59:25;11.13;;;5.60;;
24325;SDS011;12448;45.532;5.290;2023-10-13T15:01:52;12.98;;;5.25;;
24325;SDS011;12448;45.532;5.290;2023-10-13T15:04:18;7.20;;;4.97;;
24325;SDS011;12448;45.532;5.290;2023-10-13T15:06:49;8.07;;;4.97;;
24325;SDS011;12448;45.532;5.290;2023-10-13T15:09:15;14.70;;;5.20;;
24325;SDS011;12448;45.532;5.290;2023-10-13T15:11:48;14.80;;;5.40;;
24325;SDS011;12448;45.532;5.290;2023-10-13T15:14:17;11.98;;;5.32;;
24325;SDS011;12448;45.532;5.290;2023-10-13T15:16:45;10.05;;;5.20;;
24325;SDS011;12448;45.532;5.290;2023-10-13T15:19:11;12.80;;;5.63;;
24325;SDS011;12448;45.532;5.290;2023-10-13T15:21:37;9.20;;;4.90;;
24325;SDS011;12448;45.532;5.290;2023-10-13T15:24:06;9.52;;;5.15;;
24325;SDS011;12448;45.532;5.290;2023-10-13T15:26:39;11.88;;;5.32;;
24325;SDS011;12448;45.532;5.290;2023-10-13T15:29:07;7.57;;;5.38;;
24325;SDS011;12448;45.532;5.290;2023-10-13T15:31:37;9.13;;;5.32;;
24325;SDS011;12448;45.532;5.290;2023-10-13T15:34:07;19.88;;;6.55;;
24325;SDS011;12448;45.532;5.290;2023-10-13T15:36:39;11.60;;;5.72;;
24325;SDS011;12448;45.532;5.290;2023-10-13T15:39:07;11.05;;;5.47;;
24325;SDS011;12448;45.532;5.290;2023-10-13T15:41:37;10.73;;;5.75;;
24325;SDS011;12448;45.532;5.290;2023-10-13T15:44:03;12.10;;;5.32;;
24325;SDS011;12448;45.532;5.290;2023-10-13T15:46:34;10.27;;;5.97;;
24325;SDS011;12448;45.532;5.290;2023-10-13T15:49:00;13.10;;;5.57;;